• Join FlightAware (Why Join?)
  • Login
  • US Flag 
08:56AM EDT


 

Airport Tracker/Info


-or-


 

Live Flight TrackerFlight Track Log ✈ JBU917 ✈ 15-May-2013 ✈ KJFK - KORD

Flight Track Log - Related Links

Times and Time Zones

All times are in EDT time to prevent confusion due to time zone crossing. See the JBU917 flight status page for this flight to view local times or setup timezone preferences in your user account.

Time Position Orientation Groundspeed Altitude Reporting Facility
EDT Latitude Longitude Course Direction KTS MPH feet Rate Location/Type
09:19PM 40.6333 -73.6833 304° West 209 241 1,800  Level New York TRACON
09:20PM 40.6667 -73.6000 62° Northeast 280 322 4,000 2,700 Climbing New York TRACON
09:21PM 40.8360 -74.1551 304° West  Level FlightAware Approximate
09:21PM 40.7167 -73.5167 52° Northeast 292 336 7,200  Level New York TRACON
09:22PM 40.8880 -74.2556 306° West  Level FlightAware Approximate
09:22PM 40.7833 -73.5333 349° North 257 296 10,000  Level New York TRACON
09:23PM 40.9418 -74.3544 306° West  Level FlightAware Approximate
09:23PM 40.8500 -73.5833 330° Northwest 302 348 11,500  Level New York TRACON
09:24PM 40.9992 -74.4484 304° West  Level FlightAware Approximate
09:24PM 40.9000 -73.6667 308° West 302 348 14,300  Level New York TRACON
09:25PM 40.9500 -73.7500 308° West 307 353 16,700 1,320 Climbing New York TRACON
09:26PM 40.9833 -73.8667 291° West 342 394 17,000 60 Climbing New York TRACON
09:27PM 41.0242 -74.0550 286° West 369 425 17,000  Level New York Center
09:28PM 41.0439 -74.1689 283° West 364 419 17,000 1,140 Level New York Center
09:29PM 41.0669 -74.3075 282° West 359 413 19,300 2,160 Climbing New York Center
09:30PM 41.0922 -74.4356 285° West 359 413 21,400 1,980 Climbing New York Center
09:31PM 41.1131 -74.5661 282° West 359 413 23,300 1,680 Climbing New York Center
09:32PM 41.1378 -74.6997 284° West 359 413 24,800 1,440 Climbing New York Center
09:33PM 41.1900 -74.8239 299° West 370 426 26,200 1,320 Climbing New York Center
09:34PM 41.2461 -74.9486 301° West 379 436 27,500 1,080 Climbing New York Center
09:35PM 41.2997 -75.0736 300° West 392 451 28,500 1,080 Climbing New York Center
09:36PM 41.3575 -75.2044 301° West 404 465 29,700 1,440 Climbing New York Center
09:37PM 41.4108 -75.3325 299° West 404 465 31,400 1,320 Climbing New York Center
09:38PM 41.4644 -75.4550 300° West 404 465 32,500 1,200 Climbing New York Center
09:39PM 41.5050 -75.5853 293° West 393 452 33,900 1,200 Climbing New York Center
09:40PM 41.5414 -75.7128 291° West 379 436 35,000 840 Climbing New York Center
09:41PM 41.5800 -75.8375 293° West 379 436 35,700 480 Climbing New York Center
09:42PM 41.6139 -75.9678 289° West 379 436 36,000 60 Climbing New York Center
09:45PM 41.7047 -76.2939 291° West 376 433 36,000  Level Cleveland Center
09:46PM 41.7431 -76.4278 291° West 382 440 36,000  Level Cleveland Center
09:47PM 41.7789 -76.5564 291° West 382 440 36,000  Level Cleveland Center
09:48PM 41.8147 -76.6878 290° West 382 440 36,000  Level Cleveland Center
09:49PM 41.8525 -76.8194 291° West 382 440 36,000  Level Cleveland Center
09:50PM 41.8881 -76.9542 290° West 382 440 36,000  Level Cleveland Center
09:51PM 41.9233 -77.0861 290° West 382 440 36,000  Level Cleveland Center
09:52PM 41.9586 -77.2183 290° West 376 433 36,000  Level Cleveland Center
09:53PM 41.9936 -77.3478 290° West 376 433 36,000  Level Cleveland Center
09:54PM 42.0308 -77.4828 290° West 376 433 36,000  Level Cleveland Center
09:55PM 42.0656 -77.6156 289° West 376 433 36,000  Level Cleveland Center
09:56PM 42.1000 -77.7456 290° West 376 433 36,000  Level Cleveland Center
09:57PM 42.1367 -77.8783 290° West 376 433 36,000  Level Cleveland Center
09:58PM 42.1689 -78.0142 288° West 376 433 36,000  Level Cleveland Center
09:59PM 42.2053 -78.1444 291° West 376 433 36,000  Level Cleveland Center
10:00PM 42.2411 -78.2778 290° West 376 433 36,000  Level Cleveland Center
10:01PM 42.2750 -78.4111 289° West 376 433 36,000  Level Cleveland Center
10:02PM 42.3019 -78.5169 289° West 376 433 36,000  Level Cleveland Center
10:03PM 42.3381 -78.6647 288° West 376 433 36,000  Level Cleveland Center
10:04PM 42.3714 -78.7986 289° West 376 433 36,000  Level Cleveland Center
10:05PM 42.4089 -78.9467 289° West 376 433 36,000  Level Cleveland Center
10:06PM 42.4422 -79.0808 289° West 376 433 36,000  Level Cleveland Center
10:07PM 42.4750 -79.2011 290° West 376 433 36,000  Level Cleveland Center
10:08PM 42.4953 -79.3386 281° West 381 438 36,000  Level Cleveland Center
10:09PM 42.5028 -79.4792 274° West 376 433 36,000  Level Cleveland Center
10:10PM 42.5083 -79.6200 273° West 371 427 36,000  Level Cleveland Center
10:11PM 42.5156 -79.7606 274° West 371 427 36,000  Level Cleveland Center
10:12PM 42.5250 -79.8986 275° West 371 427 36,000  Level Cleveland Center
10:13PM 42.5300 -80.0564 273° West 371 427 36,000  Level Cleveland Center
10:14PM 42.5325 -80.1917 271° West 371 427 36,000  Level Cleveland Center
10:15PM 42.5392 -80.3325 274° West 371 427 36,000  Level Cleveland Center
10:16PM 42.5436 -80.4733 273° West 377 434 36,000  Level Cleveland Center
10:17PM 42.5497 -80.6142 273° West 377 434 36,000  Level Cleveland Center
10:18PM 42.5558 -80.7550 273° West 370 426 36,000  Level Cleveland Center
10:19PM 42.5597 -80.8906 272° West 370 426 36,000  Level Cleveland Center
10:20PM 42.5656 -81.0314 273° West 370 426 36,000  Level Cleveland Center
10:21PM 42.5692 -81.1697 272° West 370 426 36,000  Level Cleveland Center
10:22PM 42.5747 -81.3133 273° West 365 420 36,000 -240 Level Cleveland Center
10:23PM 42.5822 -81.4347 275° West 365 420 35,600 -540 Descending Cleveland Center
10:24PM 42.6039 -81.5761 282° West 371 427 35,000 -300 Descending Cleveland Center
10:25PM 42.6275 -81.7119 283° West 376 433 35,000  Level Cleveland Center
10:26PM 42.6572 -81.8650 285° West 376 433 35,000  Level Cleveland Center
10:27PM 42.6786 -82.0036 282° West 376 433 35,000  Level Cleveland Center
10:28PM 42.7039 -82.1428 284° West 376 433 35,000  Level Cleveland Center
10:29PM 42.7250 -82.2733 282° West 381 438 35,000  Level Cleveland Center
10:30PM 42.7478 -82.4097 283° West 381 438 35,000  Level Cleveland Center
10:31PM 42.7706 -82.5461 283° West 376 433 35,000  Level Cleveland Center
10:32PM 42.7953 -82.6856 284° West 376 433 35,000  Level Cleveland Center
10:33PM 42.8114 -82.8247 279° West 376 433 35,000  Level Cleveland Center
10:34PM 42.8192 -82.9667 274° West 376 433 35,000  Level Cleveland Center
10:35PM 42.8242 -83.1111 273° West 376 433 35,000  Level Cleveland Center
10:36PM 42.8314 -83.2531 274° West 376 433 35,000  Level Cleveland Center
10:37PM 42.8364 -83.3947 273° West 376 433 35,000  Level Cleveland Center
10:38PM 42.8433 -83.5394 274° West 381 438 35,000  Level Cleveland Center
10:39PM 42.8481 -83.6786 273° West 386 444 35,000 -420 Level Cleveland Center
10:40PM 42.8544 -83.8206 274° West 386 444 34,200 -540 Descending Cleveland Center
10:41PM 42.8606 -83.9681 273° West 386 444 34,000 -120 Descending Cleveland Center
10:42PM 42.8667 -84.1158 273° West 386 444 34,000  Level Cleveland Center
10:43PM 42.8706 -84.2578 272° West 386 444 34,000  Level Cleveland Center
10:44PM 42.8803 -84.4950 273° West 383 441 34,000  Level Chicago Center
10:45PM 42.8792 -84.6406 269° West 384 442 34,000  Level Chicago Center
10:47PM 42.8625 -84.7844 261° West 385 443 34,000  Level Chicago Center
10:48PM 42.8478 -84.9297 262° West 386 444 34,000  Level Chicago Center
10:49PM 42.8328 -85.0753 262° West 388 447 34,000 -360 Level Chicago Center
10:50PM 42.8158 -85.2219 261° West 390 449 33,300 -1,020 Descending Chicago Center
10:51PM 42.7975 -85.3986 262° West 392 451 32,000 -1,260 Descending Chicago Center
10:52PM 42.7778 -85.5467 260° West 396 456 30,800 -1,320 Descending Chicago Center
10:53PM 42.7508 -85.6956 256° West 402 463 29,300 -1,680 Descending Chicago Center
10:54PM 42.7239 -85.8467 256° West 408 470 27,500 -2,040 Descending Chicago Center
10:55PM 42.6975 -85.9928 256° West 398 458 25,200 -2,400 Descending Chicago Center
10:56PM 42.6722 -86.1303 256° West 380 437 22,700 -2,460 Descending Chicago Center
10:57PM 42.6469 -86.2644 256° West 368 423 20,300 -1,380 Descending Chicago Center
10:58PM 42.6219 -86.3944 255° West 356 410 20,000 -900 Descending Chicago Center
10:59PM 42.5975 -86.5242 256° West 355 409 18,500 -1,620 Descending Chicago Center
11:00PM 42.5742 -86.6522 256° West 350 403 16,700 -1,860 Descending Chicago Center
11:01PM 42.5475 -86.7783 254° West 349 402 14,800 -1,860 Descending Chicago Center
11:02PM 42.5139 -86.8978 249° West 343 395 13,000 -1,740 Descending Chicago Center
11:03PM 42.4825 -87.0142 250° West 331 381 11,300 -1,500 Descending Chicago Center
11:04PM 42.4464 -87.1467 250° West 316 364 10,000 -660 Descending Chicago Center
11:05PM 42.4147 -87.2544 248° West 310 357 10,000  Level Chicago Center
11:06PM 42.3850 -87.3672 250° West 316 364 10,000  Level Chicago Center
11:07PM 42.3514 -87.4864 249° West 319 367 10,000  Level Chicago Center
11:08PM 42.2981 -87.5797 232° Southwest 331 381 10,000 -300 Level Chicago Center
11:09PM 42.2347 -87.6453 217° Southwest 292 336 9,400 -1,260 Descending Chicago Center
11:10PM 42.1758 -87.7064 218° Southwest 271 312 7,500 -1,200 Descending Chicago Center
11:11PM 42.1153 -87.7711 218° Southwest 279 321 7,000 -300 Descending Chicago Center
11:12PM 42.0833 -87.8667 246° West 267 307 7,000  Level Chicago TRACON
11:13PM 42.0833 -87.9667 270° West 270 311 7,000  Level Chicago TRACON
11:14PM 42.0667 -88.0667 257° West 266 306 7,000 -480 Level Chicago TRACON
11:15PM 42.0667 -88.1667 270° West 260 299 6,000 -1,080 Descending Chicago TRACON
11:16PM 42.0667 -88.2667 270° West 257 296 5,000 -540 Descending Chicago TRACON
11:17PM 42.0500 -88.3500 255° West 259 298 5,000  Level Chicago TRACON
11:18PM 42.0333 -88.4333 255° West 272 313 5,000  Level Chicago TRACON
11:18PM 42.0197 -88.4356 187° South 271 312 5,000  Level Chicago Center
11:19PM 41.9656 -88.3853 145° Southeast 266 306 5,000  Level Chicago Center
11:20PM 41.9675 -88.3033 88° East 219 252 5,000 -120 Level Chicago Center
11:21PM 41.9669 -88.2267 91° East 210 242 4,800 -660 Descending Chicago Center
11:22PM 41.9675 -88.1467 89° East 211 243 3,700 -1,200 Descending Chicago Center
11:23PM 41.9667 -88.0500 91° East 203 234 2,500 -1,140 Descending Chicago TRACON
11:24PM 41.9667 -88.0000 90° East 164 189 1,500 -900 Descending Chicago TRACON
11:25PM 41.9667 -87.9333 90° East 136 157 800 -720 Descending Chicago TRACON